createdAt,value
2018-07-03T07:36:42.559Z,26.02
2018-07-03T07:39:13.894Z,28.83
2018-07-03T07:41:44.022Z,26.10
2018-07-03T07:44:14.294Z,25.72
2018-07-03T07:46:44.467Z,27.15
2018-07-03T07:49:14.806Z,32.58
2018-07-03T07:51:46.647Z,24.55
2018-07-03T07:54:16.717Z,28.73
2018-07-03T07:56:46.775Z,35.55
2018-07-03T07:59:17.052Z,29.05
2018-07-03T08:01:46.967Z,31.37
2018-07-03T08:04:18.216Z,29.25
2018-07-03T08:06:47.846Z,27.32
2018-07-03T08:09:18.125Z,28.62
2018-07-03T08:11:48.211Z,31.07
2018-07-03T08:14:18.327Z,25.80
2018-07-03T08:16:48.690Z,25.40
2018-07-03T08:19:18.846Z,24.55
2018-07-03T08:21:48.945Z,26.23
2018-07-03T08:24:19.047Z,27.85
2018-07-03T08:26:49.269Z,22.98
2018-07-03T08:29:19.484Z,24.70
2018-07-03T08:31:49.552Z,26.70
2018-07-03T08:34:20.629Z,23.83
2018-07-03T08:36:50.795Z,23.67
2018-07-03T08:39:21.150Z,27.73
2018-07-03T08:41:51.617Z,23.18
2018-07-03T08:44:21.900Z,21.82
2018-07-03T08:46:52.420Z,25.45
2018-07-03T08:49:22.771Z,20.82
2018-07-03T08:51:53.384Z,23.80
2018-07-03T08:54:23.630Z,24.63
2018-07-03T08:56:53.587Z,23.98
2018-07-03T08:59:24.396Z,26.17
2018-07-03T09:01:54.532Z,19.45
2018-07-03T09:04:25.285Z,21.00
2018-07-03T09:06:55.964Z,23.92
2018-07-03T09:09:26.741Z,21.15
2018-07-03T09:11:57.494Z,21.02
2018-07-03T09:14:28.183Z,18.40
2018-07-03T09:17:02.943Z,16.62
2018-07-03T09:19:32.464Z,18.07
2018-07-03T09:22:02.486Z,16.97
2018-07-03T09:24:33.031Z,20.23
2018-07-03T09:27:03.935Z,17.77
2018-07-03T09:29:34.931Z,19.73
2018-07-03T09:32:05.352Z,20.23
2018-07-03T09:34:36.653Z,19.85
2018-07-03T09:37:08.555Z,18.98
2018-07-03T09:39:39.157Z,21.07
2018-07-03T09:42:09.858Z,17.67
2018-07-03T09:44:40.376Z,22.65
2018-07-03T09:47:10.262Z,22.22
2018-07-03T09:49:40.308Z,19.07
2018-07-03T09:52:10.897Z,18.02
2018-07-03T09:54:41.182Z,18.05
2018-07-03T09:57:11.760Z,18.60
2018-07-03T10:01:11.334Z,24.05
2018-07-03T10:03:41.466Z,23.42
2018-07-03T10:06:11.753Z,19.57
2018-07-03T10:08:42.114Z,18.17
2018-07-03T10:11:12.800Z,18.25
2018-07-03T10:13:43.117Z,17.95
2018-07-03T10:16:13.246Z,17.42
2018-07-03T10:18:43.647Z,21.27
2018-07-03T10:21:14.099Z,18.17
2018-07-03T10:23:44.501Z,20.05
2018-07-03T10:26:14.523Z,18.15
2018-07-03T10:28:44.695Z,19.00
2018-07-03T10:31:15.054Z,19.32
2018-07-03T10:33:45.361Z,17.45
2018-07-03T10:36:15.633Z,19.27
2018-07-03T10:38:46.199Z,15.30
2018-07-03T10:41:16.877Z,17.42
2018-07-03T10:43:47.150Z,17.17
2018-07-03T10:46:17.341Z,20.85
2018-07-03T10:48:47.575Z,17.45
2018-07-03T10:51:17.794Z,13.40
2018-07-03T10:53:48.129Z,13.75
2018-07-03T10:56:17.682Z,17.15
2018-07-03T10:58:47.861Z,17.45
2018-07-03T11:01:18.039Z,14.85
2018-07-03T11:03:48.747Z,17.75
2018-07-03T11:06:19.001Z,15.70
2018-07-03T11:08:49.593Z,20.72
2018-07-03T11:11:19.888Z,15.38
2018-07-03T11:13:50.143Z,18.23
2018-07-03T11:16:20.448Z,22.37
2018-07-03T11:18:51.285Z,15.05
2018-07-03T11:21:21.473Z,14.73
2018-07-03T11:23:51.645Z,14.00
2018-07-03T11:26:21.775Z,19.25
2018-07-03T11:28:52.070Z,21.73
2018-07-03T11:31:22.341Z,17.40
2018-07-03T11:33:52.585Z,17.65
2018-07-03T11:36:23.005Z,15.18
2018-07-03T11:38:53.041Z,14.60
2018-07-03T11:41:23.457Z,13.15
2018-07-03T11:43:53.832Z,15.05
2018-07-03T11:46:24.524Z,17.85
2018-07-03T11:48:54.854Z,14.33
2018-07-03T11:51:25.506Z,17.10
2018-07-03T11:53:55.850Z,18.27
2018-07-03T11:56:26.414Z,18.32
2018-07-03T11:58:56.852Z,16.57
2018-07-03T12:01:27.488Z,15.23
2018-07-03T12:03:57.670Z,13.48
2018-07-03T12:06:27.947Z,15.70
2018-07-03T12:08:58.340Z,13.53
2018-07-03T12:11:28.914Z,14.83
2018-07-03T12:13:58.639Z,13.93
2018-07-03T12:16:28.586Z,13.32
2018-07-03T12:18:59.493Z,15.85
2018-07-03T12:21:30.396Z,12.25
2018-07-03T12:24:00.799Z,13.20
2018-07-03T12:26:32.465Z,14.63
2018-07-03T12:29:02.706Z,12.50
2018-07-03T12:31:33.235Z,12.78
2018-07-03T12:34:03.670Z,16.40
2018-07-03T12:36:33.596Z,9.20
2018-07-03T12:39:05.130Z,15.65
2018-07-03T12:41:35.495Z,13.53
2018-07-03T12:44:05.825Z,9.83
2018-07-03T12:46:35.774Z,9.58
2018-07-03T12:49:05.817Z,11.75
2018-07-03T12:51:35.857Z,11.30
2018-07-03T12:54:06.487Z,8.25
2018-07-03T12:56:36.716Z,12.30
2018-07-03T12:59:07.325Z,12.30
2018-07-03T13:01:37.992Z,12.10
2018-07-03T13:04:08.302Z,13.25
2018-07-03T13:06:38.499Z,10.45
2018-07-03T13:09:08.944Z,7.67
2018-07-03T13:11:39.266Z,8.98
2018-07-03T13:14:09.562Z,11.00
2018-07-03T13:16:40.133Z,13.40
2018-07-03T13:19:10.350Z,12.85
2018-07-03T13:21:40.580Z,8.25
2018-07-03T13:24:10.898Z,13.10
2018-07-03T13:26:41.340Z,9.78
2018-07-03T13:29:11.808Z,9.98
2018-07-03T13:31:41.917Z,8.18
2018-07-03T13:34:12.049Z,14.25
2018-07-03T13:36:42.145Z,12.00
2018-07-03T13:39:12.707Z,10.05
2018-07-03T13:41:43.069Z,12.00
2018-07-03T13:44:13.600Z,11.95
2018-07-03T13:46:43.874Z,8.63
2018-07-03T13:49:13.988Z,13.68
2018-07-03T13:51:44.220Z,9.45
2018-07-03T13:54:14.701Z,13.18
2018-07-03T13:56:44.991Z,8.50
2018-07-03T13:59:15.457Z,7.72
2018-07-03T14:01:45.665Z,9.53
2018-07-03T14:04:15.894Z,9.25
2018-07-03T14:06:46.282Z,8.83
2018-07-03T14:09:16.228Z,13.60
2018-07-03T14:11:46.330Z,12.73
2018-07-03T14:14:16.324Z,13.70
2018-07-03T14:16:46.115Z,9.98
2018-07-03T14:19:15.669Z,10.50
2018-07-03T14:21:45.675Z,15.75
2018-07-03T14:24:16.104Z,16.67
2018-07-03T14:26:46.254Z,14.53
2018-07-03T14:29:16.407Z,12.65
2018-07-03T14:31:48.016Z,13.75
2018-07-03T14:34:23.747Z,14.47
2018-07-03T14:36:55.296Z,9.45
2018-07-03T14:39:25.895Z,11.97
2018-07-03T14:41:56.350Z,12.85
2018-07-03T14:44:28.858Z,10.40
2018-07-03T14:46:59.298Z,12.13
2018-07-03T14:49:31.042Z,11.63
2018-07-03T14:52:01.087Z,20.30
2018-07-03T14:54:31.338Z,9.90
2018-07-03T14:57:01.804Z,12.60
2018-07-03T14:59:32.792Z,10.28
2018-07-03T15:02:04.208Z,11.18
